createdAt,value
2017-10-07T00:00:17.660Z,16.50
2017-10-07T00:02:44.332Z,16.30
2017-10-07T00:05:11.000Z,16.60
2017-10-07T00:07:37.654Z,16.50
2017-10-07T00:10:04.316Z,17.03
2017-10-07T00:12:30.964Z,18.20
2017-10-07T00:14:57.992Z,19.00
2017-10-07T00:17:24.639Z,18.13
2017-10-07T00:19:51.287Z,20.83
2017-10-07T00:22:17.975Z,19.20
2017-10-07T00:24:44.651Z,17.80
2017-10-07T00:27:11.309Z,19.70
2017-10-07T00:29:37.996Z,22.07
2017-10-07T00:32:04.660Z,21.63
2017-10-07T00:34:31.312Z,22.50
2017-10-07T00:36:57.999Z,19.70
2017-10-07T00:39:24.651Z,19.73
2017-10-07T00:41:51.292Z,20.47
2017-10-07T00:44:17.964Z,13.50
2017-10-07T00:46:44.725Z,12.10
2017-10-07T00:49:11.395Z,13.20
2017-10-07T00:51:38.215Z,18.50
2017-10-07T00:54:04.855Z,19.17
2017-10-07T00:56:31.503Z,17.20
2017-10-07T00:58:58.184Z,18.70
2017-10-07T01:01:24.839Z,16.43
2017-10-07T01:03:51.517Z,18.63
2017-10-07T01:06:18.163Z,17.70
2017-10-07T01:08:44.832Z,17.40
2017-10-07T01:11:11.480Z,14.20
2017-10-07T01:13:38.159Z,17.87
2017-10-07T01:16:04.806Z,18.93
2017-10-07T01:18:31.492Z,18.87
2017-10-07T01:20:58.159Z,17.20
2017-10-07T01:23:24.951Z,17.30
2017-10-07T01:25:51.636Z,19.50
2017-10-07T01:28:18.306Z,16.83
2017-10-07T01:30:44.957Z,17.90
2017-10-07T01:33:11.824Z,19.20
2017-10-07T01:35:38.485Z,18.07
2017-10-07T01:38:05.141Z,16.70
2017-10-07T01:47:14.800Z,14.73
2017-10-07T01:49:41.449Z,18.43
2017-10-07T01:52:08.120Z,19.47
2017-10-07T01:54:34.795Z,20.87
2017-10-07T01:57:01.475Z,16.97
2017-10-07T01:59:28.125Z,21.80
2017-10-07T02:01:54.950Z,19.97
2017-10-07T02:04:21.595Z,20.37
2017-10-07T02:06:48.257Z,19.83
2017-10-07T02:09:14.936Z,19.10
2017-10-07T02:11:41.581Z,18.80
2017-10-07T02:14:08.255Z,16.30
2017-10-07T02:16:34.929Z,20.57
2017-10-07T02:19:01.947Z,19.77
2017-10-07T02:21:28.598Z,16.90
2017-10-07T02:23:55.246Z,18.40
2017-10-07T02:26:21.911Z,18.20
2017-10-07T02:28:48.572Z,13.97
2017-10-07T02:31:15.559Z,17.10
2017-10-07T02:33:42.212Z,19.57
2017-10-07T02:36:08.860Z,18.43
2017-10-07T02:38:35.551Z,20.10
2017-10-07T02:41:02.204Z,20.63
2017-10-07T02:43:28.881Z,20.10
2017-10-07T02:45:55.564Z,16.37
2017-10-07T02:48:22.211Z,18.47
2017-10-07T02:50:48.892Z,21.60
2017-10-07T02:53:15.938Z,21.70
2017-10-07T02:55:42.583Z,21.30
2017-10-07T02:58:09.248Z,18.83
2017-10-07T03:00:35.916Z,20.07
2017-10-07T03:03:02.563Z,19.53
2017-10-07T03:05:29.245Z,21.80
2017-10-07T03:07:55.887Z,21.13
2017-10-07T03:10:22.559Z,21.30
2017-10-07T03:12:49.469Z,19.20
2017-10-07T03:15:16.217Z,20.47
2017-10-07T03:17:42.887Z,19.60
2017-10-07T03:20:09.561Z,18.50
2017-10-07T03:22:36.448Z,19.57
2017-10-07T03:25:03.096Z,16.23
2017-10-07T03:27:29.753Z,19.27
2017-10-07T03:29:56.470Z,15.87
2017-10-07T03:32:23.116Z,19.30
2017-10-07T03:34:49.759Z,17.70
2017-10-07T03:37:16.463Z,18.47
2017-10-07T03:39:43.108Z,19.03
2017-10-07T03:42:09.761Z,20.17
2017-10-07T03:44:36.439Z,18.20
2017-10-07T03:47:03.082Z,15.57
2017-10-07T03:49:29.750Z,18.93
2017-10-07T03:51:56.428Z,17.17
2017-10-07T03:54:23.093Z,19.77
2017-10-07T03:56:49.771Z,17.37
2017-10-07T03:59:16.425Z,18.47
2017-10-07T04:01:43.296Z,17.90
2017-10-07T04:04:09.947Z,19.97
2017-10-07T04:06:36.595Z,19.77
2017-10-07T04:09:03.317Z,19.10
2017-10-07T04:11:29.977Z,19.17
2017-10-07T04:13:56.617Z,19.30
2017-10-07T04:16:23.318Z,17.47
2017-10-07T04:18:50.305Z,18.40
2017-10-07T04:21:16.955Z,20.27
2017-10-07T04:23:43.621Z,21.33
2017-10-07T04:26:10.306Z,19.73
2017-10-07T04:28:37.379Z,21.17
2017-10-07T04:31:04.032Z,18.50
2017-10-07T04:33:30.677Z,20.83
2017-10-07T04:35:57.608Z,19.90
2017-10-07T04:38:24.354Z,22.47
2017-10-07T04:40:51.003Z,19.93
2017-10-07T04:43:17.680Z,18.70
2017-10-07T04:45:44.329Z,19.77
2017-10-07T04:48:11.011Z,19.67
2017-10-07T04:50:37.664Z,20.83
2017-10-07T04:53:04.505Z,19.57
2017-10-07T04:55:31.159Z,18.73
2017-10-07T04:57:57.860Z,21.23
2017-10-07T05:00:24.512Z,17.70
2017-10-07T05:02:51.168Z,16.63
2017-10-07T05:05:17.840Z,17.23
2017-10-07T05:07:44.504Z,18.13
2017-10-07T05:10:11.176Z,18.87
2017-10-07T05:12:37.834Z,15.33
2017-10-07T05:15:04.690Z,16.83
2017-10-07T05:17:31.338Z,16.40
2017-10-07T05:19:57.999Z,15.73
2017-10-07T05:22:24.905Z,17.90
2017-10-07T05:24:51.552Z,16.23
2017-10-07T05:27:18.195Z,16.77
2017-10-07T05:29:45.141Z,18.50
2017-10-07T05:32:11.779Z,15.47
2017-10-07T05:34:38.734Z,16.53
2017-10-07T05:37:05.403Z,17.40
2017-10-07T05:39:32.069Z,20.07
2017-10-07T05:41:58.903Z,20.50
2017-10-07T05:44:25.555Z,19.37
2017-10-07T05:46:52.211Z,17.80
2017-10-07T05:49:19.288Z,20.73
2017-10-07T05:51:45.944Z,14.97
2017-10-07T05:54:12.597Z,16.47
2017-10-07T05:56:39.264Z,15.90
2017-10-07T05:59:05.913Z,16.17
2017-10-07T06:01:32.902Z,17.70
2017-10-07T06:03:59.550Z,18.10
2017-10-07T06:06:26.204Z,16.60
2017-10-07T06:08:52.871Z,13.27
2017-10-07T06:11:19.515Z,17.73
2017-10-07T06:13:46.184Z,18.87
2017-10-07T06:16:12.847Z,16.47
2017-10-07T06:18:39.899Z,16.27
2017-10-07T06:21:06.571Z,16.93
2017-10-07T06:23:33.220Z,18.87
2017-10-07T06:25:59.889Z,16.67
2017-10-07T06:28:26.565Z,18.83
2017-10-07T06:30:53.263Z,19.53
2017-10-07T06:33:19.953Z,18.20
2017-10-07T06:35:46.600Z,20.67
2017-10-07T06:38:13.275Z,19.23
2017-10-07T06:40:39.928Z,15.63
2017-10-07T06:43:06.610Z,20.00
2017-10-07T06:45:34.280Z,20.20
2017-10-07T06:48:00.939Z,20.83
2017-10-07T06:50:27.600Z,21.60
2017-10-07T06:52:54.285Z,21.17
2017-10-07T06:55:20.957Z,21.23
2017-10-07T06:57:47.624Z,18.57
2017-10-07T07:00:14.429Z,15.63
2017-10-07T07:02:41.077Z,16.07
2017-10-07T07:05:07.737Z,17.90
2017-10-07T07:07:34.419Z,16.00
2017-10-07T07:10:01.077Z,17.47
2017-10-07T07:12:28.045Z,17.77
2017-10-07T07:14:54.694Z,15.17
2017-10-07T07:17:21.341Z,12.43
2017-10-07T07:19:48.016Z,14.53
2017-10-07T07:22:14.672Z,17.00
2017-10-07T07:24:41.349Z,12.57
2017-10-07T07:27:08.000Z,14.57
2017-10-07T07:29:34.676Z,14.30
2017-10-07T07:32:01.328Z,13.50
2017-10-07T07:34:27.985Z,11.07
2017-10-07T07:36:54.668Z,11.87
2017-10-07T07:39:21.320Z,14.40
2017-10-07T07:41:47.976Z,13.83
2017-10-07T07:44:14.662Z,11.20
2017-10-07T07:46:41.318Z,12.33
2017-10-07T07:49:08.006Z,12.67
2017-10-07T07:51:34.656Z,11.73
2017-10-07T07:54:01.297Z,8.90
2017-10-07T07:56:27.963Z,10.60
2017-10-07T07:58:54.608Z,11.73
2017-10-07T08:01:21.283Z,8.93
2017-10-07T08:03:47.940Z,10.30
2017-10-07T08:06:14.588Z,11.03
2017-10-07T08:08:41.415Z,10.23
2017-10-07T08:11:08.067Z,8.67
2017-10-07T08:13:34.720Z,13.33
2017-10-07T08:16:01.386Z,9.33
2017-10-07T08:18:28.032Z,11.40
2017-10-07T08:20:54.910Z,8.03
2017-10-07T08:23:21.950Z,7.33
2017-10-07T08:25:48.595Z,9.37
2017-10-07T08:28:15.238Z,8.60
2017-10-07T08:30:41.903Z,7.83
2017-10-07T08:33:08.713Z,8.23
2017-10-07T08:35:35.463Z,8.50
2017-10-07T08:38:02.105Z,6.87
2017-10-07T08:40:28.774Z,7.97
2017-10-07T08:42:55.445Z,9.17
2017-10-07T08:45:22.107Z,7.40
2017-10-07T08:47:49.181Z,6.80
2017-10-07T08:50:15.832Z,7.73
2017-10-07T08:52:42.484Z,6.80
2017-10-07T08:55:09.145Z,5.07
2017-10-07T08:57:35.792Z,6.17
2017-10-07T09:00:02.789Z,4.77
2017-10-07T09:02:29.449Z,6.40
2017-10-07T09:04:56.095Z,4.43
2017-10-07T09:07:22.761Z,6.20
2017-10-07T09:09:49.405Z,6.27
2017-10-07T09:12:16.068Z,6.07
2017-10-07T09:14:42.724Z,5.60
2017-10-07T09:17:09.690Z,6.17
2017-10-07T09:19:36.379Z,4.50
2017-10-07T09:22:03.375Z,4.70
2017-10-07T09:24:30.021Z,5.50
2017-10-07T09:26:56.675Z,4.50
2017-10-07T09:29:23.352Z,5.70
2017-10-07T09:31:49.996Z,6.20
2017-10-07T09:34:16.662Z,7.27
2017-10-07T09:36:43.328Z,5.47
2017-10-07T09:39:10.006Z,6.07
2017-10-07T09:41:36.655Z,7.17
2017-10-07T09:44:03.325Z,11.20
2017-10-07T09:46:29.975Z,7.80
2017-10-07T09:48:56.668Z,8.70
2017-10-07T09:51:23.463Z,7.40
2017-10-07T09:53:50.115Z,7.63
2017-10-07T09:56:16.755Z,8.53
2017-10-07T09:58:43.423Z,7.40
2017-10-07T10:01:10.058Z,6.93
2017-10-07T10:03:36.720Z,7.20
2017-10-07T10:06:03.370Z,6.93
2017-10-07T10:08:30.061Z,6.03
2017-10-07T10:10:56.705Z,5.10
2017-10-07T10:13:23.353Z,5.60
2017-10-07T10:15:50.030Z,5.53
2017-10-07T10:18:16.685Z,6.47
2017-10-07T10:20:43.350Z,6.07
2017-10-07T10:23:10.030Z,5.87
2017-10-07T10:25:36.700Z,4.53
2017-10-07T10:28:03.686Z,4.87
2017-10-07T10:30:30.341Z,4.63
2017-10-07T10:32:56.983Z,3.43
2017-10-07T10:35:23.652Z,3.60
2017-10-07T10:37:50.304Z,3.70
2017-10-07T10:40:16.983Z,5.00
2017-10-07T10:42:43.644Z,3.67
2017-10-07T10:45:10.316Z,4.70
2017-10-07T10:47:37.233Z,3.83
2017-10-07T10:50:03.884Z,3.67
2017-10-07T10:52:30.515Z,4.17
2017-10-07T10:54:57.188Z,4.47
2017-10-07T10:57:23.857Z,4.00
2017-10-07T10:59:50.519Z,3.93
2017-10-07T11:02:17.161Z,2.83
2017-10-07T11:04:43.837Z,2.87
2017-10-07T11:07:10.479Z,4.20
2017-10-07T11:09:37.306Z,3.20
2017-10-07T11:12:03.949Z,3.83
2017-10-07T11:14:30.589Z,3.73
2017-10-07T11:16:57.248Z,3.87
2017-10-07T11:19:23.919Z,3.47
2017-10-07T11:21:50.620Z,3.07
2017-10-07T11:24:17.273Z,3.80
2017-10-07T11:26:43.936Z,4.10
2017-10-07T11:29:10.589Z,3.83
2017-10-07T11:31:37.379Z,4.40
2017-10-07T11:34:04.020Z,5.20
2017-10-07T11:36:30.660Z,4.53
2017-10-07T11:38:57.373Z,4.70
2017-10-07T11:41:24.025Z,4.17
2017-10-07T11:43:50.667Z,4.03
2017-10-07T11:46:17.333Z,3.80
2017-10-07T11:48:44.003Z,5.20
2017-10-07T11:51:10.688Z,3.73
2017-10-07T11:53:37.660Z,3.27
2017-10-07T11:56:04.505Z,2.53
2017-10-07T11:58:31.183Z,2.20
2017-10-07T12:00:57.829Z,1.30
2017-10-07T12:03:24.494Z,1.60
2017-10-07T12:05:51.140Z,1.77
2017-10-07T12:08:17.806Z,1.77
2017-10-07T12:10:44.462Z,1.57
2017-10-07T12:13:11.139Z,2.50
2017-10-07T12:15:38.163Z,2.00
2017-10-07T12:18:04.815Z,2.13
2017-10-07T12:20:31.456Z,2.20
2017-10-07T12:22:58.129Z,2.07
2017-10-07T12:25:24.906Z,1.90
2017-10-07T12:27:51.547Z,2.00
2017-10-07T12:30:18.198Z,2.13
2017-10-07T12:32:44.875Z,2.00
2017-10-07T12:35:11.519Z,4.00
2017-10-07T12:37:38.199Z,2.03
2017-10-07T12:40:05.048Z,2.37
2017-10-07T12:42:31.703Z,1.43
2017-10-07T12:44:58.960Z,2.03
2017-10-07T12:47:25.912Z,3.77
2017-10-07T12:49:52.580Z,2.50
2017-10-07T12:52:19.228Z,3.53
2017-10-07T12:54:45.896Z,2.90
2017-10-07T12:57:12.551Z,2.93
2017-10-07T12:59:39.217Z,3.67
2017-10-07T13:02:05.869Z,3.27
2017-10-07T13:04:32.521Z,2.50
2017-10-07T13:07:00.131Z,2.40
2017-10-07T13:09:26.769Z,2.53
2017-10-07T13:11:53.435Z,1.80
2017-10-07T13:14:21.356Z,2.30
2017-10-07T13:16:49.176Z,2.40
2017-10-07T13:19:16.108Z,1.20
2017-10-07T13:21:42.773Z,1.97
2017-10-07T13:24:09.411Z,1.93
2017-10-07T13:26:36.370Z,1.93
2017-10-07T13:29:03.017Z,1.90
2017-10-07T13:31:29.656Z,2.13
2017-10-07T13:33:56.329Z,1.53
2017-10-07T13:36:22.988Z,2.43
2017-10-07T13:38:49.630Z,2.10
2017-10-07T13:41:16.297Z,2.17
2017-10-07T13:43:42.933Z,3.13
2017-10-07T13:46:09.591Z,6.00
2017-10-07T13:48:36.262Z,2.97
2017-10-07T13:51:02.904Z,2.30
2017-10-07T13:53:29.807Z,2.40
2017-10-07T13:55:56.452Z,2.97
2017-10-07T13:58:23.149Z,3.10
2017-10-07T14:00:49.817Z,1.87
2017-10-07T14:03:16.476Z,1.83
2017-10-07T14:05:43.124Z,2.47
2017-10-07T14:08:09.797Z,2.10
2017-10-07T14:10:36.464Z,2.90
2017-10-07T14:13:03.112Z,2.67
2017-10-07T14:15:29.800Z,2.70
2017-10-07T14:17:56.494Z,1.90
2017-10-07T14:20:23.144Z,1.97
2017-10-07T14:22:49.783Z,1.70
2017-10-07T14:25:16.447Z,1.80
2017-10-07T14:27:43.092Z,1.80
2017-10-07T14:30:09.776Z,2.00
2017-10-07T14:32:36.444Z,1.67
2017-10-07T14:35:03.085Z,1.87
2017-10-07T14:37:29.751Z,1.80
2017-10-07T14:39:56.698Z,2.30
2017-10-07T14:42:23.367Z,3.00
2017-10-07T14:44:50.009Z,2.13
2017-10-07T14:47:16.655Z,1.70
2017-10-07T14:49:44.264Z,1.40
2017-10-07T14:52:10.909Z,2.40
2017-10-07T14:54:37.569Z,1.60
2017-10-07T14:57:04.210Z,1.80
2017-10-07T14:59:30.873Z,1.73
2017-10-07T15:01:57.557Z,1.23
2017-10-07T15:04:24.240Z,1.93
2017-10-07T15:06:51.080Z,1.80
2017-10-07T15:09:17.720Z,1.70
2017-10-07T15:11:44.564Z,2.77
2017-10-07T15:14:11.228Z,1.60
2017-10-07T15:16:37.887Z,2.17
2017-10-07T15:19:04.570Z,1.50
2017-10-07T15:21:31.226Z,2.03
2017-10-07T15:23:57.869Z,1.90
2017-10-07T15:26:24.700Z,2.37
2017-10-07T15:28:51.340Z,2.30
2017-10-07T15:31:17.983Z,1.90
2017-10-07T15:33:44.779Z,2.77
2017-10-07T15:36:11.419Z,2.10
2017-10-07T15:38:38.061Z,2.07
2017-10-07T15:41:04.832Z,2.10
2017-10-07T15:43:31.475Z,1.57
2017-10-07T15:45:58.116Z,1.80
2017-10-07T15:48:24.789Z,1.63
2017-10-07T15:50:51.428Z,2.10
2017-10-07T15:53:18.087Z,1.53
2017-10-07T15:55:44.731Z,1.80
2017-10-07T15:58:11.423Z,1.50
2017-10-07T16:00:38.299Z,1.80
2017-10-07T16:03:04.941Z,3.63
2017-10-07T16:05:31.628Z,2.37
2017-10-07T16:07:58.277Z,1.50
2017-10-07T16:10:24.940Z,1.80
2017-10-07T16:12:51.617Z,6.30
2017-10-07T16:15:18.291Z,5.13
2017-10-07T16:17:44.955Z,6.33
2017-10-07T16:20:11.599Z,1.90
2017-10-07T16:22:38.264Z,5.67
2017-10-07T16:25:04.912Z,2.63
2017-10-07T16:27:31.579Z,2.53
2017-10-07T16:29:58.396Z,2.30
2017-10-07T16:32:25.044Z,2.55
2017-10-07T16:34:51.984Z,2.23
2017-10-07T16:37:18.633Z,21.87
2017-10-07T16:39:45.301Z,2.97
2017-10-07T16:42:11.936Z,3.00
2017-10-07T16:44:38.608Z,2.90
2017-10-07T16:47:05.252Z,2.57
2017-10-07T16:49:31.904Z,2.73
2017-10-07T16:51:58.571Z,3.13
2017-10-07T16:54:25.228Z,3.27
2017-10-07T16:56:52.000Z,3.07
2017-10-07T16:59:18.645Z,3.00
2017-10-07T17:01:45.281Z,2.67
2017-10-07T17:04:11.942Z,3.90
2017-10-07T17:06:38.599Z,3.33
2017-10-07T17:09:05.237Z,3.10
2017-10-07T17:11:31.909Z,2.87
2017-10-07T17:13:58.596Z,2.00
2017-10-07T17:16:25.232Z,3.80
2017-10-07T17:18:51.925Z,2.90
2017-10-07T17:21:18.567Z,3.87
2017-10-07T17:23:45.240Z,3.00
2017-10-07T17:26:11.933Z,2.97
2017-10-07T17:28:38.570Z,2.93
2017-10-07T17:31:06.054Z,3.27
2017-10-07T17:33:34.115Z,4.10
2017-10-07T17:36:01.586Z,3.60
2017-10-07T17:38:28.536Z,3.60
2017-10-07T17:40:55.179Z,4.50
2017-10-07T17:43:22.915Z,6.00
2017-10-07T17:45:49.570Z,22.50
2017-10-07T17:48:16.239Z,6.27
2017-10-07T17:50:42.896Z,9.80
2017-10-07T17:53:09.574Z,7.60
2017-10-07T17:55:36.245Z,6.40
2017-10-07T17:58:02.892Z,5.50
2017-10-07T18:00:30.754Z,5.57
2017-10-07T18:02:57.416Z,5.93
2017-10-07T18:05:24.069Z,5.93
2017-10-07T18:07:50.780Z,5.87
2017-10-07T18:10:17.424Z,5.20
2017-10-07T18:12:44.271Z,4.10
2017-10-07T18:15:10.913Z,6.00
2017-10-07T18:17:37.559Z,10.33
2017-10-07T18:20:04.228Z,8.33
2017-10-07T18:22:30.877Z,4.57
2017-10-07T18:24:57.574Z,4.63
2017-10-07T18:27:24.221Z,4.80
2017-10-07T18:29:50.868Z,4.67
2017-10-07T18:32:17.537Z,5.17
2017-10-07T18:34:44.191Z,5.60
2017-10-07T18:37:11.186Z,5.77
2017-10-07T18:39:37.828Z,4.20
2017-10-07T18:42:04.472Z,4.80
2017-10-07T18:44:31.137Z,5.27
2017-10-07T18:46:57.781Z,4.73
2017-10-07T18:49:24.597Z,4.83
2017-10-07T18:51:51.243Z,4.67
2017-10-07T18:54:17.876Z,5.50
2017-10-07T18:56:44.836Z,3.83
2017-10-07T18:59:11.501Z,3.73
2017-10-07T19:01:38.146Z,5.70
2017-10-07T19:04:04.791Z,7.07
2017-10-07T19:06:32.281Z,6.73
2017-10-07T19:08:59.255Z,6.70
2017-10-07T19:11:26.223Z,5.40
2017-10-07T19:13:52.863Z,4.53
2017-10-07T19:16:19.529Z,5.63
2017-10-07T19:18:46.330Z,5.37
2017-10-07T19:21:12.971Z,7.80
2017-10-07T19:23:39.656Z,6.20
2017-10-07T19:26:06.337Z,6.10
2017-10-07T19:28:32.985Z,6.60
2017-10-07T19:30:59.645Z,5.40
2017-10-07T19:33:26.317Z,5.13
2017-10-07T19:35:52.964Z,5.77
2017-10-07T19:38:19.660Z,5.40
2017-10-07T19:40:46.406Z,5.53
2017-10-07T19:43:13.253Z,4.90
2017-10-07T19:45:39.893Z,4.33
2017-10-07T19:48:06.586Z,8.70
2017-10-07T19:50:33.238Z,5.30
2017-10-07T19:52:59.892Z,8.57
2017-10-07T19:55:26.570Z,7.37
2017-10-07T19:57:53.213Z,6.43
2017-10-07T20:00:19.855Z,5.10
2017-10-07T20:02:46.785Z,5.33
2017-10-07T20:05:13.683Z,7.97
2017-10-07T20:07:40.327Z,7.40
2017-10-07T20:10:06.990Z,5.70
2017-10-07T20:12:33.894Z,5.70
2017-10-07T20:15:00.568Z,5.00
2017-10-07T20:17:27.429Z,5.10
2017-10-07T20:19:54.533Z,5.27
2017-10-07T20:22:21.296Z,3.90
2017-10-07T20:24:47.956Z,4.20
2017-10-07T20:27:14.638Z,4.53
2017-10-07T20:29:41.301Z,4.10
2017-10-07T20:32:07.970Z,3.90
2017-10-07T20:34:34.620Z,3.70
2017-10-07T20:37:01.292Z,3.33
2017-10-07T20:39:27.974Z,3.27
2017-10-07T20:41:55.083Z,3.30
2017-10-07T20:44:21.741Z,3.07
2017-10-07T20:46:48.406Z,3.17
2017-10-07T20:49:15.066Z,3.60
2017-10-07T20:51:41.724Z,4.10
2017-10-07T20:54:08.392Z,3.33
2017-10-07T20:56:35.048Z,3.80
2017-10-07T20:59:01.692Z,3.30
2017-10-07T21:01:28.356Z,3.17
2017-10-07T21:03:54.994Z,3.60
2017-10-07T21:06:21.672Z,3.67
2017-10-07T21:08:48.315Z,3.93
2017-10-07T21:11:14.958Z,3.43
2017-10-07T21:13:41.619Z,3.57
2017-10-07T21:16:08.292Z,3.80
2017-10-07T21:18:34.950Z,4.13
2017-10-07T21:21:01.616Z,5.20
2017-10-07T21:23:28.312Z,5.30
2017-10-07T21:25:54.951Z,3.50
2017-10-07T21:28:21.628Z,3.07
2017-10-07T21:30:48.301Z,3.23
2017-10-07T21:33:14.945Z,4.10
2017-10-07T21:35:41.623Z,2.83
2017-10-07T21:38:08.270Z,3.10
2017-10-07T21:40:35.457Z,3.77
2017-10-07T21:43:02.100Z,3.53
2017-10-07T21:45:28.738Z,3.30
2017-10-07T21:47:55.410Z,3.50
2017-10-07T21:50:22.048Z,3.93
2017-10-07T21:52:48.731Z,3.90
2017-10-07T21:55:15.376Z,3.30
2017-10-07T21:57:42.092Z,3.70
2017-10-07T22:00:08.759Z,3.43
2017-10-07T22:02:35.405Z,3.73
2017-10-07T22:05:02.066Z,4.23
2017-10-07T22:07:28.735Z,4.37
2017-10-07T22:09:55.376Z,3.70
2017-10-07T22:12:22.058Z,3.30
2017-10-07T22:14:48.720Z,3.93
2017-10-07T22:17:15.395Z,3.73
2017-10-07T22:19:42.045Z,4.13
2017-10-07T22:22:08.731Z,3.60
2017-10-07T22:24:35.372Z,3.03
2017-10-07T22:27:02.351Z,3.80
2017-10-07T22:29:28.992Z,3.50
2017-10-07T22:31:55.655Z,3.43
2017-10-07T22:34:22.305Z,3.57
2017-10-07T22:36:48.990Z,3.60
2017-10-07T22:39:15.636Z,4.67
2017-10-07T22:41:42.287Z,3.37
2017-10-07T22:44:09.167Z,2.57
2017-10-07T22:46:35.816Z,3.77
2017-10-07T22:49:02.464Z,3.83
2017-10-07T22:51:29.129Z,3.87
2017-10-07T22:53:55.808Z,3.23
2017-10-07T22:56:22.455Z,3.40
2017-10-07T22:58:49.168Z,3.10
2017-10-07T23:01:15.824Z,3.50
2017-10-07T23:03:42.463Z,4.57
2017-10-07T23:06:09.135Z,4.07
2017-10-07T23:08:35.780Z,3.23
2017-10-07T23:11:02.420Z,4.63
2017-10-07T23:13:29.097Z,3.40
2017-10-07T23:15:55.744Z,3.50
2017-10-07T23:18:22.408Z,3.33
2017-10-07T23:20:49.055Z,3.60
2017-10-07T23:23:15.823Z,3.87
2017-10-07T23:25:42.471Z,3.37
2017-10-07T23:28:09.107Z,4.20
2017-10-07T23:30:35.772Z,4.00
2017-10-07T23:33:02.407Z,3.20
2017-10-07T23:35:29.067Z,3.70
2017-10-07T23:37:55.718Z,3.50
2017-10-07T23:40:22.609Z,4.20
2017-10-07T23:42:49.257Z,3.50
2017-10-07T23:45:15.899Z,3.60
2017-10-07T23:47:42.773Z,4.10
2017-10-07T23:50:09.414Z,3.10
2017-10-07T23:52:36.052Z,3.70
2017-10-07T23:55:02.727Z,3.47
2017-10-07T23:57:29.610Z,3.00
2017-10-07T23:59:56.239Z,3.23
